Kortcamp, Illinois
Current Conditions -  °F | °C
As of 7:15 AM on Friday 28 Nov 2014 (Local Time) from K3LF Reporting Station
Scattered Clouds Scattered Clouds  
Wind Chill: -12°   Ceiling: Unl
Heat Index: -5°   Visibility: 7mi
Dew Point: -7°   Wind: 14mph
Humidity: 85%   Direction: 140°SE
Pressure: 30.25"   Gusts: NA
Location:  39.1415°N, 89.5029°W
Report Text: K3LF 281315Z AUTO 14012KT 7SM SCT120 M05/M07 A3025 RMK AO2 T10521073
Loading
Personal Weather Stations






























Interactive Weather Map New forecast layout! Learn more

10-Day Weather Forecast

Advertisements
Track Severe Weather on mobile